Time;durP1;ratioP1;P1;durP2;ratioP2;P2;SDS_P1;SDS_P2;PMS_P1;PMS_P2;Temp;Humidity;BMP_temperature;BMP_pressure;BME280_temperature;BME280_humidity;BME280_pressure;Samples;Min_cycle;Max_cycle;Signal;HPM_P1;HPM_P2
2023/03/30 00:00:18;;;;;;;23.65;17.77;;;11.80;99.90;;;;;;5015890;28;20329;-89
2023/03/30 00:02:48;;;;;;;21.95;17.13;;;11.90;99.90;;;;;;5001633;28;20120;-88
2023/03/30 00:05:14;;;;;;;21.92;16.65;;;11.90;99.90;;;;;;5001230;28;20038;-89
2023/03/30 00:07:41;;;;;;;20.45;15.43;;;11.90;99.90;;;;;;5000543;28;20033;-88
2023/03/30 00:10:09;;;;;;;19.52;14.10;;;11.90;99.90;;;;;;5002831;28;20037;-88
2023/03/30 00:12:35;;;;;;;18.90;13.63;;;12.10;99.90;;;;;;5002803;28;20141;-89
2023/03/30 00:15:01;;;;;;;16.98;13.27;;;12.20;99.90;;;;;;5007813;28;20131;-89
2023/03/30 00:17:27;;;;;;;16.80;13.13;;;12.10;99.90;;;;;;5004424;28;20445;-89
2023/03/30 00:19:52;;;;;;;18.23;13.27;;;12.10;99.90;;;;;;5008752;28;20079;-88
2023/03/30 00:22:18;;;;;;;14.55;11.75;;;12.20;99.90;;;;;;5022560;28;20140;-89
2023/03/30 00:24:44;;;;;;;16.00;10.93;;;12.20;99.90;;;;;;5021909;28;20502;-89
2023/03/30 00:27:09;;;;;;;14.73;11.93;;;12.30;99.90;;;;;;5005299;28;20029;-89
2023/03/30 00:29:35;;;;;;;16.25;11.32;;;12.30;99.90;;;;;;5005406;28;20038;-88
2023/03/30 00:32:02;;;;;;;15.23;11.13;;;12.30;99.90;;;;;;5030087;28;20063;-89
2023/03/30 00:34:28;;;;;;;15.57;11.45;;;12.30;99.90;;;;;;5021460;28;20045;-89
2023/03/30 00:36:56;;;;;;;14.75;11.43;;;12.30;99.90;;;;;;5022082;28;20055;-89
2023/03/30 00:39:25;;;;;;;16.52;11.30;;;12.30;99.90;;;;;;5024503;28;20041;-88
2023/03/30 00:41:53;;;;;;;15.43;11.25;;;12.10;99.90;;;;;;5022298;28;20049;-89
2023/03/30 00:44:57;;;;;;;16.02;11.52;;;12.10;99.90;;;;;;5003074;28;20103;-89
2023/03/30 00:47:23;;;;;;;16.17;11.55;;;12.20;99.90;;;;;;5017030;28;20125;-89
2023/03/30 00:49:49;;;;;;;13.68;10.48;;;12.10;99.90;;;;;;5022422;28;20622;-89
2023/03/30 00:52:18;;;;;;;18.80;11.35;;;12.10;99.90;;;;;;5009466;28;20112;-89
2023/03/30 00:54:45;;;;;;;16.52;10.52;;;12.00;99.90;;;;;;5021166;28;20043;-88
2023/03/30 00:57:13;;;;;;;14.70;11.18;;;12.00;99.90;;;;;;5021608;28;20043;-89
2023/03/30 00:59:39;;;;;;;14.90;10.77;;;12.00;99.90;;;;;;5006367;28;20041;-88
2023/03/30 01:02:06;;;;;;;16.77;10.45;;;12.00;99.90;;;;;;5021584;28;20100;-89
2023/03/30 01:04:36;;;;;;;14.63;10.95;;;12.00;99.90;;;;;;5003999;28;20069;-89
2023/03/30 01:07:03;;;;;;;14.05;10.40;;;12.00;99.90;;;;;;5002899;28;20041;-89
2023/03/30 01:09:29;;;;;;;14.82;10.82;;;12.00;99.90;;;;;;5002849;28;20038;-89
2023/03/30 01:11:55;;;;;;;12.25;9.73;;;12.00;99.90;;;;;;5003324;28;20049;-88
2023/03/30 01:14:21;;;;;;;12.98;9.80;;;11.90;99.90;;;;;;5005049;28;20041;-89
2023/03/30 01:17:05;;;;;;;17.30;9.70;;;12.00;99.90;;;;;;5005946;28;20072;-89
2023/03/30 01:19:37;;;;;;;15.02;9.38;;;12.00;99.90;;;;;;5005149;28;20183;-89
2023/03/30 01:22:15;;;;;;;17.75;8.88;;;12.00;99.90;;;;;;5005509;28;20320;-89
2023/03/30 01:25:05;;;;;;;14.15;8.32;;;12.00;99.90;;;;;;5005145;28;20087;-89
2023/03/30 01:28:10;;;;;;;11.18;7.88;;;12.10;99.90;;;;;;5026468;28;21895;-88
2023/03/30 01:31:24;;;;;;;10.45;7.70;;;12.10;99.90;;;;;;4923822;29;20047;-89
2023/03/30 01:34:00;;;;;;;13.68;7.78;;;12.10;99.90;;;;;;4906661;29;20039;-89
2023/03/30 01:36:41;;;;;;;11.23;7.88;;;12.10;99.90;;;;;;4993660;28;20076;-88
2023/03/30 01:39:41;;;;;;;10.93;6.90;;;12.10;99.90;;;;;;5004387;28;20871;-89
2023/03/30 01:42:26;;;;;;;13.75;7.55;;;12.10;99.90;;;;;;4973699;28;20578;-89
2023/03/30 01:45:11;;;;;;;8.85;6.38;;;12.20;99.90;;;;;;5004513;28;20046;-88
2023/03/30 01:48:02;;;;;;;10.25;6.95;;;12.20;99.90;;;;;;5004059;28;20053;-89
2023/03/30 01:50:41;;;;;;;10.85;7.43;;;12.20;99.90;;;;;;5003041;28;20298;-89
2023/03/30 01:53:26;;;;;;;10.45;6.90;;;12.20;99.90;;;;;;5005824;28;20040;-89
2023/03/30 01:55:56;;;;;;;8.90;5.93;;;12.20;99.90;;;;;;5006707;28;20063;-89
2023/03/30 01:58:27;;;;;;;11.02;6.40;;;12.20;99.90;;;;;;5020835;28;20068;-89
2023/03/30 02:00:54;;;;;;;11.43;6.88;;;12.20;99.90;;;;;;5009983;28;20125;-89
2023/03/30 02:03:29;;;;;;;10.35;6.50;;;12.20;99.90;;;;;;5005670;28;20048;-89
2023/03/30 02:06:02;;;;;;;9.90;6.47;;;12.10;99.90;;;;;;5022146;28;20073;-89
2023/03/30 02:08:31;;;;;;;9.35;6.80;;;12.10;99.90;;;;;;5004123;28;20045;-89
2023/03/30 02:10:58;;;;;;;10.48;6.50;;;12.10;99.90;;;;;;5007507;28;20230;-88
2023/03/30 02:13:27;;;;;;;12.25;6.78;;;12.10;99.90;;;;;;5021545;28;20050;-89
2023/03/30 02:16:02;;;;;;;10.05;6.20;;;12.20;99.90;;;;;;5003276;28;20064;-89
2023/03/30 02:18:28;;;;;;;8.90;6.15;;;12.20;99.90;;;;;;5002920;28;20079;-89
2023/03/30 02:20:58;;;;;;;10.32;6.60;;;12.20;99.90;;;;;;5006812;28;20072;-89
2023/03/30 02:23:29;;;;;;;9.18;6.38;;;12.20;99.90;;;;;;5026828;28;20044;-88
2023/03/30 02:25:56;;;;;;;11.40;6.88;;;12.10;99.90;;;;;;5005357;28;20111;-88
2023/03/30 02:28:22;;;;;;;10.68;6.22;;;12.10;99.90;;;;;;5007274;28;20073;-89
2023/03/30 02:30:48;;;;;;;10.90;6.43;;;12.10;99.90;;;;;;5018455;28;20131;-89
2023/03/30 02:33:24;;;;;;;11.05;6.32;;;12.10;99.90;;;;;;5020901;28;20449;-89
2023/03/30 02:36:33;;;;;;;8.80;6.18;;;12.10;99.90;;;;;;5001417;28;20304;-89
2023/03/30 02:39:04;;;;;;;9.60;6.15;;;12.10;99.90;;;;;;5001715;28;20048;-89
2023/03/30 02:41:48;;;;;;;13.52;6.28;;;12.10;99.90;;;;;;5019389;28;20068;-89
2023/03/30 02:44:44;;;;;;;11.00;6.80;;;12.00;99.90;;;;;;5005862;28;20040;-89
2023/03/30 02:47:44;;;;;;;10.68;6.50;;;12.10;99.90;;;;;;5017838;28;20041;-89
2023/03/30 02:50:21;;;;;;;10.98;6.30;;;12.10;99.90;;;;;;5034448;28;20479;-89
2023/03/30 02:52:57;;;;;;;10.25;6.25;;;12.10;99.90;;;;;;5019274;28;20064;-89
2023/03/30 02:55:46;;;;;;;12.00;6.95;;;12.00;99.90;;;;;;5003944;28;20041;-89
2023/03/30 02:58:33;;;;;;;10.88;6.43;;;11.90;99.90;;;;;;5004291;28;20044;-89
2023/03/30 03:01:19;;;;;;;11.57;6.85;;;11.90;99.90;;;;;;5002496;28;20045;-89
2023/03/30 03:03:47;;;;;;;8.85;6.10;;;11.80;99.90;;;;;;5002290;28;20102;-89
2023/03/30 03:06:17;;;;;;;10.13;6.45;;;11.90;99.90;;;;;;5005216;28;20037;-88
2023/03/30 03:08:46;;;;;;;11.75;6.72;;;11.90;99.90;;;;;;5019080;28;20091;-89
2023/03/30 03:11:13;;;;;;;9.10;5.97;;;11.80;99.90;;;;;;5019750;28;20030;-89
2023/03/30 03:13:38;;;;;;;9.65;5.65;;;12.00;99.90;;;;;;5019592;28;20052;-89
2023/03/30 03:16:06;;;;;;;12.15;6.30;;;12.00;99.90;;;;;;5049018;28;20045;-89
2023/03/30 03:18:33;;;;;;;9.93;5.85;;;12.00;99.90;;;;;;5016564;28;20044;-89
2023/03/30 03:21:00;;;;;;;9.80;5.75;;;12.00;99.90;;;;;;5006299;28;20041;-89
2023/03/30 03:23:26;;;;;;;8.75;5.70;;;12.00;99.90;;;;;;5016403;28;20037;-89
2023/03/30 03:25:51;;;;;;;10.05;5.70;;;11.90;99.90;;;;;;5003450;28;20405;-89
2023/03/30 03:28:21;;;;;;;10.75;5.30;;;11.90;99.90;;;;;;5004980;28;20048;-89
2023/03/30 03:30:53;;;;;;;9.75;6.53;;;11.90;99.90;;;;;;5004212;28;20029;-89
2023/03/30 03:33:21;;;;;;;9.07;5.20;;;11.90;99.90;;;;;;5002485;28;20033;-89
2023/03/30 03:35:47;;;;;;;10.43;5.55;;;11.90;99.90;;;;;;5015933;28;20798;-89
2023/03/30 03:38:15;;;;;;;11.82;5.60;;;11.90;99.90;;;;;;5002000;28;20048;-90
2023/03/30 03:40:41;;;;;;;9.48;5.53;;;11.90;99.90;;;;;;5017834;28;20080;-89
2023/03/30 03:43:07;;;;;;;7.57;4.88;;;11.90;99.90;;;;;;5018066;28;20444;-89
2023/03/30 03:45:32;;;;;;;8.95;4.97;;;11.90;99.90;;;;;;5023820;28;20230;-89
2023/03/30 03:47:58;;;;;;;8.63;5.07;;;11.90;99.90;;;;;;5007278;28;20030;-89
2023/03/30 03:50:24;;;;;;;9.65;5.05;;;12.00;99.90;;;;;;5025908;28;20121;-89
2023/03/30 03:52:50;;;;;;;7.95;5.03;;;12.00;99.90;;;;;;5032846;28;20439;-88
2023/03/30 03:55:15;;;;;;;9.55;5.10;;;12.00;99.90;;;;;;5010603;28;20130;-89
2023/03/30 03:57:43;;;;;;;14.77;5.15;;;12.00;99.90;;;;;;5028276;28;20099;-88
2023/03/30 04:00:15;;;;;;;9.73;4.97;;;12.10;99.90;;;;;;5010957;28;20037;-89
2023/03/30 04:02:44;;;;;;;9.60;5.00;;;12.10;99.90;;;;;;5049887;28;20124;-88
2023/03/30 04:05:10;;;;;;;9.35;4.43;;;12.20;99.90;;;;;;5010429;28;20037;-90
2023/03/30 04:07:36;;;;;;;10.70;4.28;;;12.10;99.90;;;;;;5051903;28;20065;-89
2023/03/30 04:10:04;;;;;;;8.10;4.55;;;12.10;99.90;;;;;;5007697;28;20041;-89
2023/03/30 04:12:30;;;;;;;8.63;4.43;;;12.10;99.90;;;;;;5010279;28;20030;-89
2023/03/30 04:14:55;;;;;;;8.73;4.55;;;12.10;99.90;;;;;;5026584;28;20545;-89
2023/03/30 04:17:22;;;;;;;7.43;5.20;;;12.10;99.90;;;;;;5008910;28;20099;-88
2023/03/30 04:19:55;;;;;;;10.32;4.68;;;12.10;99.90;;;;;;5023632;28;20169;-90
2023/03/30 04:22:25;;;;;;;8.80;4.68;;;12.00;99.90;;;;;;5008202;28;20100;-89
2023/03/30 04:24:51;;;;;;;8.52;4.75;;;12.00;99.90;;;;;;5007764;28;20057;-89
2023/03/30 04:27:18;;;;;;;7.38;4.45;;;12.00;99.90;;;;;;5026701;28;20029;-89
2023/03/30 04:29:44;;;;;;;8.38;4.38;;;12.00;99.90;;;;;;5009736;28;20116;-89
2023/03/30 04:32:11;;;;;;;10.30;4.50;;;12.00;99.90;;;;;;5008245;28;20041;-88
2023/03/30 04:34:48;;;;;;;6.93;4.07;;;12.10;99.90;;;;;;5025302;28;20502;-89
2023/03/30 04:37:16;;;;;;;9.13;4.05;;;12.10;99.90;;;;;;5039388;28;20060;-88
2023/03/30 04:39:43;;;;;;;6.53;3.33;;;12.10;99.90;;;;;;5025927;28;20402;-89
2023/03/30 04:42:13;;;;;;;8.60;3.65;;;12.10;99.90;;;;;;5006619;28;20498;-89
2023/03/30 04:44:39;;;;;;;10.30;4.00;;;12.10;99.90;;;;;;5008596;28;20265;-89
2023/03/30 04:47:07;;;;;;;8.55;3.92;;;12.10;99.90;;;;;;5024409;28;20250;-88
2023/03/30 04:49:33;;;;;;;9.13;3.80;;;12.10;99.90;;;;;;5024523;28;20052;-89
2023/03/30 04:51:59;;;;;;;8.45;3.47;;;12.10;99.90;;;;;;5008978;28;20083;-88
2023/03/30 04:54:25;;;;;;;7.35;4.28;;;12.10;99.90;;;;;;5008572;28;20191;-89
2023/03/30 04:56:50;;;;;;;7.47;3.53;;;12.10;99.90;;;;;;5024013;28;20512;-89
2023/03/30 04:59:16;;;;;;;11.27;4.55;;;12.10;99.90;;;;;;5024397;28;20048;-89
2023/03/30 05:01:42;;;;;;;7.72;4.07;;;12.20;99.90;;;;;;5005126;28;20068;-89
2023/03/30 05:04:08;;;;;;;8.55;3.72;;;12.20;99.90;;;;;;5003954;28;20033;-89
2023/03/30 05:06:33;;;;;;;10.05;3.70;;;12.30;99.90;;;;;;5017390;28;20033;-89
2023/03/30 05:08:59;;;;;;;10.65;3.65;;;12.30;99.90;;;;;;5020553;28;20040;-88
2023/03/30 05:11:25;;;;;;;7.30;3.53;;;12.40;99.90;;;;;;5032671;28;20462;-89
2023/03/30 05:13:52;;;;;;;12.52;3.90;;;12.40;99.90;;;;;;5005559;28;20114;-89
2023/03/30 05:16:20;;;;;;;9.30;3.47;;;12.40;99.90;;;;;;5005187;28;20138;-89
2023/03/30 05:18:45;;;;;;;8.18;4.03;;;12.40;99.90;;;;;;5019163;28;20045;-89
2023/03/30 05:21:11;;;;;;;10.15;3.88;;;12.40;99.90;;;;;;5003631;28;20041;-89
2023/03/30 05:23:38;;;;;;;14.55;3.97;;;12.50;99.90;;;;;;5006129;28;20410;-90
2023/03/30 05:26:06;;;;;;;9.13;4.15;;;12.60;99.90;;;;;;5043530;28;20492;-90
2023/03/30 05:28:32;;;;;;;15.35;4.32;;;12.60;99.90;;;;;;5005879;28;20041;-89
2023/03/30 05:30:58;;;;;;;8.95;4.10;;;12.60;99.90;;;;;;5004353;28;20045;-89
2023/03/30 05:33:24;;;;;;;10.18;3.78;;;12.60;99.90;;;;;;5020170;28;20103;-90
2023/03/30 05:35:50;;;;;;;9.45;4.50;;;12.60;99.90;;;;;;5045606;28;20366;-89
2023/03/30 05:38:16;;;;;;;11.07;4.43;;;12.50;99.90;;;;;;5006469;28;20037;-88
2023/03/30 05:40:43;;;;;;;9.93;4.38;;;12.60;99.90;;;;;;5006191;28;20049;-89
2023/03/30 05:43:09;;;;;;;11.02;4.25;;;12.50;99.90;;;;;;5009851;28;20033;-89
2023/03/30 05:45:36;;;;;;;10.80;4.00;;;12.50;99.90;;;;;;5006397;28;20036;-89
2023/03/30 05:48:02;;;;;;;8.77;4.03;;;12.50;99.90;;;;;;5045903;28;20041;-89
2023/03/30 05:50:27;;;;;;;10.45;4.82;;;12.50;99.90;;;;;;5031595;28;20048;-90
2023/03/30 05:52:53;;;;;;;8.80;4.45;;;12.50;99.90;;;;;;5019755;28;20056;-89
2023/03/30 05:55:19;;;;;;;9.32;4.65;;;12.50;99.90;;;;;;5020951;28;20041;-89
2023/03/30 05:57:44;;;;;;;11.38;5.07;;;12.50;99.90;;;;;;5021205;28;20065;-88
2023/03/30 06:00:12;;;;;;;12.57;4.82;;;12.50;99.90;;;;;;5005628;28;20033;-89
2023/03/30 06:02:38;;;;;;;9.13;4.40;;;12.50;99.90;;;;;;5001967;28;20069;-89
2023/03/30 06:05:08;;;;;;;10.68;4.50;;;12.50;99.90;;;;;;5004748;28;20041;-89
2023/03/30 06:07:33;;;;;;;10.60;4.47;;;12.40;99.90;;;;;;5024785;28;20038;-89
2023/03/30 06:10:00;;;;;;;11.98;4.47;;;12.40;99.90;;;;;;5005183;28;20083;-89
2023/03/30 06:12:26;;;;;;;9.48;4.57;;;12.40;99.90;;;;;;5020085;28;20083;-89
2023/03/30 06:14:52;;;;;;;7.30;4.38;;;12.40;99.90;;;;;;5005802;28;20098;-89
2023/03/30 06:17:17;;;;;;;8.82;4.60;;;12.40;99.90;;;;;;5030476;28;20041;-89
2023/03/30 06:19:46;;;;;;;8.13;3.80;;;12.50;99.90;;;;;;5016790;28;20391;-89
2023/03/30 06:22:12;;;;;;;7.22;3.67;;;12.50;99.90;;;;;;5009538;28;20511;-89
2023/03/30 06:24:37;;;;;;;10.98;4.57;;;12.50;99.90;;;;;;5006212;28;20041;-89
2023/03/30 06:27:03;;;;;;;8.40;4.15;;;12.60;99.90;;;;;;5004661;28;20179;-89
2023/03/30 06:29:29;;;;;;;8.13;4.00;;;12.60;99.90;;;;;;5006591;28;20034;-89
2023/03/30 06:31:55;;;;;;;9.43;4.43;;;12.60;99.90;;;;;;5007023;28;20095;-89
2023/03/30 06:34:21;;;;;;;9.57;4.10;;;12.70;99.90;;;;;;5017955;28;20037;-88
2023/03/30 06:36:47;;;;;;;10.70;4.43;;;12.70;99.90;;;;;;5020477;28;20195;-90
2023/03/30 06:39:13;;;;;;;6.57;3.85;;;12.80;99.90;;;;;;5020660;28;20483;-89
2023/03/30 06:41:39;;;;;;;8.43;3.85;;;12.80;99.90;;;;;;5019173;28;20037;-89
2023/03/30 06:44:13;;;;;;;7.18;4.15;;;12.90;99.90;;;;;;5019766;28;20121;-89
2023/03/30 06:46:40;;;;;;;7.68;4.43;;;12.90;99.90;;;;;;5020205;28;20486;-89
2023/03/30 06:49:06;;;;;;;7.55;4.38;;;12.90;99.90;;;;;;5003228;28;20051;-89
2023/03/30 06:51:35;;;;;;;8.90;4.57;;;13.00;99.90;;;;;;5022403;28;20338;-89
2023/03/30 06:54:01;;;;;;;8.05;4.10;;;13.10;99.90;;;;;;5003423;28;20056;-89
2023/03/30 06:56:27;;;;;;;11.27;4.60;;;13.10;99.90;;;;;;5002907;28;20057;-89
2023/03/30 06:58:52;;;;;;;8.15;4.18;;;13.10;99.90;;;;;;5003816;28;20091;-89
2023/03/30 07:01:18;;;;;;;8.07;3.95;;;13.10;99.90;;;;;;5004473;28;20052;-90
2023/03/30 07:03:44;;;;;;;7.45;3.53;;;13.20;99.90;;;;;;5003938;28;20037;-89
2023/03/30 07:06:11;;;;;;;11.40;3.80;;;13.40;99.90;;;;;;5001157;28;20034;-89
2023/03/30 07:08:37;;;;;;;9.77;3.80;;;13.30;99.90;;;;;;5035781;28;20119;-89
2023/03/30 07:11:05;;;;;;;11.80;4.20;;;13.20;99.90;;;;;;5018955;28;20065;-89
2023/03/30 07:13:32;;;;;;;10.98;4.00;;;13.10;99.90;;;;;;5002906;28;20037;-89
2023/03/30 07:15:57;;;;;;;11.60;3.85;;;13.10;99.90;;;;;;5004399;28;20288;-89
2023/03/30 07:18:24;;;;;;;8.35;3.58;;;13.00;99.90;;;;;;5018557;28;20044;-89
2023/03/30 07:20:50;;;;;;;13.65;3.90;;;13.00;99.90;;;;;;5005000;28;20068;-89
2023/03/30 07:23:16;;;;;;;16.90;4.40;;;12.90;99.90;;;;;;5045327;28;20077;-89
2023/03/30 07:25:43;;;;;;;14.60;4.20;;;12.90;99.90;;;;;;5004713;28;20056;-89
2023/03/30 07:28:09;;;;;;;14.93;4.13;;;12.90;99.90;;;;;;5026580;28;20144;-89
2023/03/30 07:30:35;;;;;;;10.82;3.53;;;12.90;99.90;;;;;;5000162;28;20120;-89
2023/03/30 07:33:01;;;;;;;12.15;3.53;;;12.90;99.90;;;;;;5028612;28;20037;-89
2023/03/30 07:35:30;;;;;;;9.77;3.05;;;12.90;99.90;;;;;;5004131;28;20056;-89
2023/03/30 07:37:56;;;;;;;12.20;3.80;;;12.80;99.90;;;;;;5001918;28;20053;-88
2023/03/30 07:40:22;;;;;;;13.93;3.83;;;12.80;99.90;;;;;;5003783;28;20041;-89
2023/03/30 07:42:49;;;;;;;13.20;3.75;;;12.70;99.90;;;;;;5001904;28;20041;-89
2023/03/30 07:45:15;;;;;;;14.80;3.83;;;12.70;99.90;;;;;;5003086;28;20406;-89
2023/03/30 07:47:41;;;;;;;15.68;3.70;;;12.80;99.90;;;;;;5019117;28;20041;-89
2023/03/30 07:50:07;;;;;;;13.38;3.60;;;12.70;99.90;;;;;;5016820;28;20041;-89
2023/03/30 07:52:33;;;;;;;16.83;3.92;;;12.70;99.90;;;;;;5003801;28;20037;-89
2023/03/30 07:54:59;;;;;;;15.10;4.28;;;12.70;99.90;;;;;;5002993;28;20052;-89
2023/03/30 07:57:26;;;;;;;14.15;4.82;;;12.70;99.90;;;;;;5017196;28;20045;-89
2023/03/30 07:59:51;;;;;;;16.30;4.07;;;12.70;99.90;;;;;;5007645;28;20029;-89
2023/03/30 08:02:18;;;;;;;22.25;5.40;;;12.70;99.90;;;;;;5002530;28;20033;-89
2023/03/30 08:04:44;;;;;;;15.05;3.83;;;12.70;99.90;;;;;;5016000;28;20052;-89
2023/03/30 08:07:11;;;;;;;18.35;4.15;;;12.60;99.90;;;;;;5001255;28;20441;-89
2023/03/30 08:09:36;;;;;;;16.27;4.75;;;12.60;99.90;;;;;;5003387;28;20092;-89
2023/03/30 08:12:02;;;;;;;17.23;3.45;;;12.50;99.90;;;;;;5003205;28;20042;-89
2023/03/30 08:14:28;;;;;;;16.05;4.00;;;12.50;99.90;;;;;;5019584;28;20042;-89
2023/03/30 08:16:55;;;;;;;17.08;3.53;;;12.50;99.90;;;;;;5016832;28;20095;-90
2023/03/30 08:19:24;;;;;;;17.42;3.90;;;12.50;99.90;;;;;;5016122;28;20100;-89
2023/03/30 08:21:50;;;;;;;16.58;4.38;;;12.50;99.90;;;;;;5001519;28;20074;-89
2023/03/30 08:24:16;;;;;;;18.70;4.35;;;12.40;99.90;;;;;;5002593;28;20081;-90
2023/03/30 08:26:42;;;;;;;17.77;4.05;;;12.30;99.90;;;;;;5018143;28;20068;-89
2023/03/30 08:29:08;;;;;;;16.23;4.30;;;12.10;99.90;;;;;;5003438;28;20627;-90
2023/03/30 08:31:36;;;;;;;19.92;4.43;;;12.10;99.90;;;;;;5003440;28;20060;-89
2023/03/30 08:34:14;;;;;;;19.33;4.70;;;12.20;99.90;;;;;;5033644;28;20102;-90
2023/03/30 08:36:39;;;;;;;19.20;4.93;;;12.20;99.90;;;;;;5008438;28;20049;-89
2023/03/30 08:39:05;;;;;;;17.45;4.50;;;12.20;99.90;;;;;;5006256;28;20049;-89
2023/03/30 08:41:48;;;;;;;20.38;4.80;;;12.20;99.90;;;;;;5002991;28;20038;-89
2023/03/30 08:44:30;;;;;;;16.90;4.65;;;12.20;99.90;;;;;;5006954;28;20151;-89
2023/03/30 08:46:56;;;;;;;19.33;4.35;;;12.30;99.90;;;;;;5006051;28;20037;-88
2023/03/30 08:49:23;;;;;;;19.35;4.32;;;12.50;99.90;;;;;;5004682;28;20356;-89
2023/03/30 08:51:52;;;;;;;22.73;4.43;;;12.50;99.90;;;;;;5008617;28;20045;-89
2023/03/30 08:54:19;;;;;;;23.15;5.93;;;12.40;99.90;;;;;;5019120;28;20041;-89
2023/03/30 08:57:12;;;;;;;26.33;5.95;;;12.50;99.90;;;;;;5003117;28;20077;-89
2023/03/30 08:59:59;;;;;;;18.05;4.88;;;12.60;99.90;;;;;;5022968;28;20040;-87
2023/03/30 09:02:41;;;;;;;23.65;4.65;;;12.60;99.90;;;;;;5020879;28;20044;-89
2023/03/30 09:05:31;;;;;;;19.33;4.80;;;12.60;99.90;;;;;;5004034;28;20592;-90
2023/03/30 09:08:02;;;;;;;17.33;4.97;;;12.50;99.90;;;;;;5047209;28;20510;-88
2023/03/30 09:10:30;;;;;;;20.63;5.10;;;12.70;99.90;;;;;;5001003;28;20033;-89
2023/03/30 09:13:01;;;;;;;24.80;5.32;;;12.70;99.90;;;;;;5051457;28;20148;-89
2023/03/30 09:15:38;;;;;;;22.85;5.10;;;12.90;99.90;;;;;;5006468;28;20041;-89
2023/03/30 09:18:33;;;;;;;25.42;4.95;;;13.00;99.90;;;;;;5005415;28;20586;-89
2023/03/30 09:21:04;;;;;;;20.30;4.50;;;12.90;99.90;;;;;;5004807;28;20075;-89
2023/03/30 09:23:31;;;;;;;18.00;4.38;;;12.70;99.90;;;;;;5007053;28;20171;-89
2023/03/30 09:26:10;;;;;;;27.00;4.75;;;12.90;99.90;;;;;;5004390;28;20033;-89
2023/03/30 09:29:08;;;;;;;18.30;4.93;;;13.10;99.90;;;;;;5043510;28;20041;-88
2023/03/30 09:31:44;;;;;;;20.15;4.70;;;13.30;99.90;;;;;;5005523;28;20036;-89
2023/03/30 09:34:28;;;;;;;15.20;4.07;;;13.10;99.90;;;;;;5003480;28;20040;-90
2023/03/30 09:37:05;;;;;;;21.02;4.60;;;13.40;99.90;;;;;;5008503;28;20183;-89
2023/03/30 09:39:35;;;;;;;18.90;3.80;;;13.70;99.90;;;;;;5045898;28;20044;-89
2023/03/30 09:42:17;;;;;;;20.33;3.90;;;13.60;99.90;;;;;;5002286;28;20057;-89
2023/03/30 09:44:46;;;;;;;24.02;4.40;;;13.50;99.90;;;;;;5024459;28;20044;-89
2023/03/30 09:47:23;;;;;;;24.08;4.97;;;13.50;99.90;;;;;;5006050;28;20490;-89
2023/03/30 09:49:55;;;;;;;21.90;4.45;;;13.40;99.90;;;;;;5020273;28;20120;-89
2023/03/30 09:52:24;;;;;;;12.70;3.00;;;13.40;99.90;;;;;;5027910;28;20036;-89
2023/03/30 09:54:50;;;;;;;13.70;3.45;;;13.40;99.90;;;;;;5005227;28;20184;-88
2023/03/30 09:57:27;;;;;;;19.58;3.90;;;13.20;99.90;;;;;;5005425;28;20116;-89
2023/03/30 09:59:54;;;;;;;17.88;3.60;;;13.10;99.90;;;;;;5008374;28;20048;-89
2023/03/30 10:02:22;;;;;;;23.65;4.03;;;13.10;99.90;;;;;;5001666;28;20146;-89
2023/03/30 10:04:55;;;;;;;22.27;3.95;;;13.10;99.90;;;;;;5004634;28;20401;-89
2023/03/30 10:07:25;;;;;;;19.88;4.15;;;13.20;99.90;;;;;;5005480;28;20099;-90
2023/03/30 10:09:54;;;;;;;15.38;4.20;;;13.00;99.90;;;;;;5048032;28;20034;-89
2023/03/30 10:12:23;;;;;;;15.80;3.70;;;13.10;99.90;;;;;;5047453;28;20391;-89
2023/03/30 10:14:54;;;;;;;16.65;3.25;;;13.00;99.90;;;;;;5008154;28;20099;-90
2023/03/30 10:17:25;;;;;;;17.40;3.55;;;12.90;99.90;;;;;;5019300;28;20850;-88
2023/03/30 10:19:52;;;;;;;15.07;3.20;;;12.90;99.90;;;;;;5022930;28;20243;-89
2023/03/30 10:22:21;;;;;;;15.10;3.92;;;12.90;99.90;;;;;;5019742;28;20041;-88
2023/03/30 10:24:53;;;;;;;16.88;4.43;;;12.90;99.90;;;;;;5005006;28;20106;-90
2023/03/30 10:27:26;;;;;;;16.80;3.35;;;12.80;99.90;;;;;;5021854;28;20624;-89
2023/03/30 10:29:52;;;;;;;17.40;3.40;;;12.80;99.90;;;;;;5001382;28;20034;-89
2023/03/30 10:32:20;;;;;;;10.57;3.17;;;12.80;99.90;;;;;;5021325;28;20037;-89
2023/03/30 10:35:00;;;;;;;11.23;3.08;;;12.80;99.90;;;;;;5001611;28;20100;-90
2023/03/30 10:37:43;;;;;;;16.25;3.33;;;12.80;99.90;;;;;;5001811;28;20137;-89
2023/03/30 10:40:16;;;;;;;16.75;3.70;;;12.80;99.90;;;;;;5019752;28;20038;-89
2023/03/30 10:42:43;;;;;;;15.98;3.55;;;12.80;99.90;;;;;;5003237;28;20746;-89
2023/03/30 10:45:25;;;;;;;17.92;3.40;;;12.90;99.90;;;;;;5004541;28;20471;-88
2023/03/30 10:48:05;;;;;;;20.00;4.55;;;12.90;99.90;;;;;;5000734;28;20033;-89
2023/03/30 10:50:43;;;;;;;17.35;3.60;;;12.90;99.90;;;;;;5005826;28;20038;-89
2023/03/30 10:53:37;;;;;;;15.15;3.83;;;13.00;99.90;;;;;;5043929;28;20048;-89
2023/03/30 10:56:19;;;;;;;15.52;3.97;;;13.10;99.90;;;;;;5001845;28;20049;-89
2023/03/30 10:59:22;;;;;;;17.23;3.85;;;13.10;99.90;;;;;;5016100;28;20037;-88
2023/03/30 11:01:54;;;;;;;19.30;4.82;;;13.20;99.90;;;;;;5005883;28;20089;-89
2023/03/30 11:04:28;;;;;;;13.75;3.72;;;13.30;99.90;;;;;;5003420;28;20749;-89
2023/03/30 11:06:57;;;;;;;11.93;3.85;;;13.30;99.90;;;;;;5020038;28;20037;-89
2023/03/30 11:09:28;;;;;;;14.75;3.60;;;13.40;99.90;;;;;;5020032;28;20068;-89
2023/03/30 11:12:00;;;;;;;22.83;3.63;;;13.50;99.90;;;;;;5004574;28;20056;-90
2023/03/30 11:14:48;;;;;;;17.20;4.22;;;13.40;99.90;;;;;;5019582;28;20110;-88
2023/03/30 11:17:32;;;;;;;15.50;4.03;;;13.50;99.90;;;;;;5002922;28;20033;-89
2023/03/30 11:20:08;;;;;;;19.40;4.65;;;13.40;99.90;;;;;;5004042;28;20054;-89
2023/03/30 11:22:42;;;;;;;17.77;3.65;;;13.50;99.90;;;;;;5020914;28;20045;-88
2023/03/30 11:25:23;;;;;;;23.33;4.15;;;13.60;99.90;;;;;;5001801;28;20041;-89
2023/03/30 11:27:58;;;;;;;20.48;4.13;;;13.90;99.90;;;;;;5005161;28;20033;-89
2023/03/30 11:30:36;;;;;;;15.77;3.80;;;13.90;99.90;;;;;;5019050;28;20048;-89
2023/03/30 11:33:10;;;;;;;16.80;3.95;;;14.10;99.90;;;;;;5002355;28;20180;-89
2023/03/30 11:35:53;;;;;;;21.27;4.47;;;14.10;99.90;;;;;;5001851;28;20503;-89
2023/03/30 11:38:43;;;;;;;17.88;4.72;;;14.20;99.90;;;;;;5016036;28;20052;-89
2023/03/30 11:41:22;;;;;;;19.58;4.65;;;14.40;99.90;;;;;;5001873;28;20041;-89
2023/03/30 11:43:54;;;;;;;20.73;4.10;;;14.80;99.90;;;;;;5003442;28;20812;-89
2023/03/30 11:46:28;;;;;;;16.40;3.38;;;14.70;99.90;;;;;;5016798;28;20081;-89
2023/03/30 11:49:19;;;;;;;15.35;3.67;;;14.60;99.90;;;;;;5001808;28;20494;-89
2023/03/30 11:52:04;;;;;;;20.70;4.25;;;14.70;99.90;;;;;;5001117;28;20060;-89
2023/03/30 11:55:01;;;;;;;11.48;3.78;;;14.60;99.90;;;;;;4998270;28;20056;-88
2023/03/30 11:58:04;;;;;;;13.90;4.00;;;14.90;99.90;;;;;;5008030;28;20140;-89
2023/03/30 12:00:45;;;;;;;15.70;3.90;;;15.20;99.90;;;;;;5015306;28;20053;-88
2023/03/30 12:03:35;;;;;;;14.93;3.58;;;15.40;99.90;;;;;;5018095;28;20386;-89
2023/03/30 12:06:25;;;;;;;13.30;3.35;;;15.50;99.90;;;;;;5001016;28;20380;-89
2023/03/30 12:09:21;;;;;;;14.05;3.38;;;15.90;99.90;;;;;;5017770;28;20087;-89
2023/03/30 12:11:49;;;;;;;14.40;3.50;;;15.10;99.90;;;;;;5024254;28;20041;-89
2023/03/30 12:14:48;;;;;;;19.10;4.05;;;14.70;99.90;;;;;;5020402;28;20083;-89
2023/03/30 12:17:26;;;;;;;14.02;3.28;;;14.40;99.90;;;;;;5035912;28;20041;-90
2023/03/30 12:20:11;;;;;;;16.80;4.13;;;14.40;99.90;;;;;;5006040;28;20052;-89
2023/03/30 12:22:51;;;;;;;13.15;3.35;;;14.60;99.90;;;;;;5006281;28;20411;-88
2023/03/30 12:25:58;;;;;;;21.67;4.57;;;14.40;99.90;;;;;;5006869;28;20049;-89
2023/03/30 12:28:25;;;;;;;16.30;4.10;;;14.40;99.90;;;;;;5008876;28;20112;-89
2023/03/30 12:31:01;;;;;;;15.35;3.75;;;14.60;99.90;;;;;;5005676;28;20112;-89
2023/03/30 12:33:36;;;;;;;14.93;3.70;;;14.70;99.90;;;;;;5044596;28;20042;-89
2023/03/30 12:36:03;;;;;;;14.18;4.18;;;15.40;99.90;;;;;;5004648;28;20057;-89
2023/03/30 12:38:39;;;;;;;19.88;3.90;;;15.10;99.90;;;;;;5024197;28;20069;-89
2023/03/30 12:41:15;;;;;;;18.77;3.92;;;15.30;99.90;;;;;;5032135;28;20409;-89
2023/03/30 12:43:53;;;;;;;19.83;4.32;;;14.90;99.90;;;;;;5022909;28;20042;-89
2023/03/30 12:46:34;;;;;;;21.58;4.22;;;15.10;99.90;;;;;;5021333;28;20038;-89
2023/03/30 12:49:24;;;;;;;19.75;4.28;;;14.80;99.90;;;;;;5047052;28;20041;-89
2023/03/30 12:52:08;;;;;;;16.77;4.13;;;14.90;99.90;;;;;;5005169;28;20113;-89
2023/03/30 12:54:52;;;;;;;19.98;3.72;;;15.00;99.90;;;;;;5034937;28;20068;-89
2023/03/30 12:57:24;;;;;;;20.98;3.60;;;15.30;99.90;;;;;;5007122;28;20364;-89
2023/03/30 13:00:15;;;;;;;18.17;3.53;;;15.90;99.90;;;;;;5022100;28;20058;-89
2023/03/30 13:03:14;;;;;;;18.83;4.10;;;16.30;99.90;;;;;;5003409;28;20042;-89